createdAt,value
2022-09-24T00:00:13.995Z,1009.28
2022-09-24T00:01:16.208Z,1009.27
2022-09-24T00:02:13.727Z,1009.26
2022-09-24T00:03:13.074Z,1009.29
2022-09-24T00:04:13.694Z,1009.29
2022-09-24T00:05:13.680Z,1009.31
2022-09-24T00:06:13.664Z,1009.26
2022-09-24T00:07:13.103Z,1009.25
2022-09-24T00:08:13.649Z,1009.23
2022-09-24T00:09:13.224Z,1009.20
2022-09-24T00:10:13.007Z,1009.19
2022-09-24T00:11:14.026Z,1009.21
2022-09-24T00:12:12.975Z,1009.22
2022-09-24T00:13:13.275Z,1009.22
2022-09-24T00:14:12.936Z,1009.20
2022-09-24T00:15:12.980Z,1009.19
2022-09-24T00:16:13.598Z,1009.21
2022-09-24T00:17:12.917Z,1009.19
2022-09-24T00:18:13.542Z,1009.28
2022-09-24T00:19:13.531Z,1009.26
2022-09-24T00:20:13.517Z,1009.26
2022-09-24T00:21:12.810Z,1009.23
2022-09-24T00:22:12.917Z,1009.25
2022-09-24T00:23:12.880Z,1009.23
2022-09-24T00:24:13.468Z,1009.25
2022-09-24T00:25:13.539Z,1009.23
2022-09-24T00:26:13.454Z,1009.29
2022-09-24T00:27:12.779Z,1009.25
2022-09-24T00:28:13.427Z,1009.27
2022-09-24T00:29:13.422Z,1009.27
2022-09-24T00:30:13.401Z,1009.23
2022-09-24T00:31:13.407Z,1009.27
2022-09-24T00:32:14.122Z,1009.23
2022-09-24T00:33:13.370Z,1009.31
2022-09-24T00:34:12.692Z,1009.26
2022-09-24T00:35:13.353Z,1009.25
2022-09-24T00:36:13.331Z,1009.25
2022-09-24T00:37:13.311Z,1009.23
2022-09-24T00:38:12.643Z,1009.20
2022-09-24T00:39:12.625Z,1009.23
2022-09-24T00:40:13.336Z,1009.24
2022-09-24T00:41:12.602Z,1009.23
2022-09-24T00:42:12.588Z,1009.23
2022-09-24T00:43:12.624Z,1009.24
2022-09-24T00:44:14.007Z,1009.22
2022-09-24T00:45:13.244Z,1009.27
2022-09-24T00:46:13.295Z,1009.27
2022-09-24T00:47:13.215Z,1009.26
2022-09-24T00:48:12.637Z,1009.28
2022-09-24T00:49:13.203Z,1009.30
2022-09-24T00:50:12.517Z,1009.29
2022-09-24T00:51:12.486Z,1009.30
2022-09-24T00:52:13.176Z,1009.29
2022-09-24T00:53:13.905Z,1009.27
2022-09-24T00:54:13.143Z,1009.30
2022-09-24T00:55:14.020Z,1009.37
2022-09-24T00:56:13.126Z,1009.33
2022-09-24T00:57:13.875Z,1009.39
2022-09-24T00:58:13.121Z,1009.35
2022-09-24T00:59:13.095Z,1009.34
2022-09-24T01:00:12.399Z,1009.32
2022-09-24T01:01:13.546Z,1009.30
2022-09-24T01:02:13.107Z,1009.30
2022-09-24T01:03:12.373Z,1009.29
2022-09-24T01:04:12.370Z,1009.28
2022-09-24T01:05:13.029Z,1009.25
2022-09-24T01:06:12.331Z,1009.24
2022-09-24T01:07:12.350Z,1009.32
2022-09-24T01:08:13.006Z,1009.27
2022-09-24T01:09:12.988Z,1009.25
2022-09-24T01:10:12.971Z,1009.27
2022-09-24T01:11:13.720Z,1009.28
2022-09-24T01:12:13.198Z,1009.23
2022-09-24T01:13:12.298Z,1009.21
2022-09-24T01:14:12.933Z,1009.25
2022-09-24T01:15:12.925Z,1009.20
2022-09-24T01:16:12.974Z,1009.21
2022-09-24T01:17:12.891Z,1009.22
2022-09-24T01:18:12.220Z,1009.19
2022-09-24T01:19:12.883Z,1009.16
2022-09-24T01:20:12.861Z,1009.18
2022-09-24T01:21:12.171Z,1009.19
2022-09-24T01:22:12.851Z,1009.14
2022-09-24T01:23:12.835Z,1009.20
2022-09-24T01:24:12.213Z,1009.22
2022-09-24T01:25:12.286Z,1009.23
2022-09-24T01:26:12.808Z,1009.24
2022-09-24T01:27:12.797Z,1009.20
2022-09-24T01:28:12.081Z,1009.23
2022-09-24T01:29:12.076Z,1009.17
2022-09-24T01:30:12.755Z,1009.16
2022-09-24T01:31:12.777Z,1009.18
2022-09-24T01:32:12.040Z,1009.10
2022-09-24T01:33:13.477Z,1009.16
2022-09-24T01:34:12.969Z,1009.13
2022-09-24T01:35:12.697Z,1009.18
2022-09-24T01:36:12.017Z,1009.16
2022-09-24T01:37:12.027Z,1009.15
2022-09-24T01:38:12.017Z,1009.16
2022-09-24T01:39:12.665Z,1009.15
2022-09-24T01:40:11.997Z,1009.14
2022-09-24T01:41:12.650Z,1009.10
2022-09-24T01:42:12.630Z,1009.07
2022-09-24T01:43:12.716Z,1009.11
2022-09-24T01:44:12.619Z,1009.10
2022-09-24T01:45:11.933Z,1009.13
2022-09-24T01:46:11.985Z,1009.04
2022-09-24T01:47:11.898Z,1009.03
2022-09-24T01:48:12.559Z,1008.98
2022-09-24T01:49:12.539Z,1008.96
2022-09-24T01:50:12.542Z,1008.86
2022-09-24T01:51:12.675Z,1008.85
2022-09-24T01:52:11.829Z,1008.82
2022-09-24T01:53:12.517Z,1008.84
2022-09-24T01:54:12.493Z,1008.83
2022-09-24T01:55:11.829Z,1008.83
2022-09-24T01:56:12.471Z,1008.80
2022-09-24T01:57:12.469Z,1008.77
2022-09-24T01:58:11.771Z,1008.75
2022-09-24T01:59:12.675Z,1008.71
2022-09-24T02:00:12.424Z,1008.72
2022-09-24T02:01:11.797Z,1008.70
2022-09-24T02:02:13.233Z,1008.70
2022-09-24T02:03:11.728Z,1008.70
2022-09-24T02:04:12.384Z,1008.73
2022-09-24T02:05:12.372Z,1008.72
2022-09-24T02:06:12.494Z,1008.71
2022-09-24T02:07:11.715Z,1008.67
2022-09-24T02:08:11.654Z,1008.61
2022-09-24T02:09:11.647Z,1008.62
2022-09-24T02:10:12.549Z,1008.63
2022-09-24T02:11:11.634Z,1008.67
2022-09-24T02:12:11.607Z,1008.63
2022-09-24T02:13:11.647Z,1008.61
2022-09-24T02:14:12.278Z,1008.66
2022-09-24T02:15:11.585Z,1008.60
2022-09-24T02:16:12.298Z,1008.62
2022-09-24T02:17:11.559Z,1008.60
2022-09-24T02:18:11.565Z,1008.66
2022-09-24T02:19:11.650Z,1008.69
2022-09-24T02:20:12.206Z,1008.61
2022-09-24T02:21:12.198Z,1008.69
2022-09-24T02:22:13.345Z,1008.71
2022-09-24T02:23:11.517Z,1008.73
2022-09-24T02:24:11.567Z,1008.70
2022-09-24T02:25:12.159Z,1008.62
2022-09-24T02:26:11.458Z,1008.67
2022-09-24T02:27:12.146Z,1008.66
2022-09-24T02:28:12.351Z,1008.68
2022-09-24T02:29:11.441Z,1008.69
2022-09-24T02:30:12.100Z,1008.68
2022-09-24T02:31:12.112Z,1008.66
2022-09-24T02:32:11.383Z,1008.66
2022-09-24T02:33:12.071Z,1008.69
2022-09-24T02:34:11.447Z,1008.68
2022-09-24T02:35:12.049Z,1008.63
2022-09-24T02:36:12.035Z,1008.68
2022-09-24T02:37:12.034Z,1008.65
2022-09-24T02:38:12.012Z,1008.66
2022-09-24T02:39:12.007Z,1008.66
2022-09-24T02:40:12.033Z,1008.60
2022-09-24T02:41:11.994Z,1008.60
2022-09-24T02:42:11.263Z,1008.61
2022-09-24T02:43:11.949Z,1008.62
2022-09-24T02:44:12.704Z,1008.60
2022-09-24T02:45:11.937Z,1008.57
2022-09-24T02:46:11.984Z,1008.59
2022-09-24T02:47:11.927Z,1008.63
2022-09-24T02:48:12.694Z,1008.62
2022-09-24T02:49:11.877Z,1008.57
2022-09-24T02:50:11.885Z,1008.61
2022-09-24T02:51:11.876Z,1008.61
2022-09-24T02:52:11.856Z,1008.60
2022-09-24T02:53:11.846Z,1008.64
2022-09-24T02:54:11.239Z,1008.59
2022-09-24T02:55:11.827Z,1008.59
2022-09-24T02:56:11.130Z,1008.58
2022-09-24T02:57:11.799Z,1008.60
2022-09-24T02:58:11.793Z,1008.57
2022-09-24T02:59:11.787Z,1008.54
2022-09-24T03:00:11.078Z,1008.57
2022-09-24T03:01:11.206Z,1008.52
2022-09-24T03:02:11.262Z,1008.54
2022-09-24T03:03:13.434Z,1008.56
2022-09-24T03:04:11.727Z,1008.53
2022-09-24T03:05:11.719Z,1008.51
2022-09-24T03:06:12.459Z,1008.51
2022-09-24T03:07:12.571Z,1008.52
2022-09-24T03:08:10.999Z,1008.54
2022-09-24T03:09:11.001Z,1008.52
2022-09-24T03:10:10.984Z,1008.48
2022-09-24T03:11:16.292Z,1008.48
2022-09-24T03:12:12.022Z,1008.48
2022-09-24T03:13:11.623Z,1008.54
2022-09-24T03:14:11.669Z,1008.54
2022-09-24T03:15:10.931Z,1008.52
2022-09-24T03:16:11.693Z,1008.46
2022-09-24T03:17:10.903Z,1008.47
2022-09-24T03:18:11.581Z,1008.46
2022-09-24T03:19:10.896Z,1008.49
2022-09-24T03:20:10.863Z,1008.46
2022-09-24T03:21:11.543Z,1008.45
2022-09-24T03:22:10.843Z,1008.48
2022-09-24T03:23:10.834Z,1008.45
2022-09-24T03:24:11.872Z,1008.41
2022-09-24T03:25:10.813Z,1008.38
2022-09-24T03:26:11.484Z,1008.40
2022-09-24T03:27:10.786Z,1008.40
2022-09-24T03:28:10.776Z,1008.39
2022-09-24T03:29:10.775Z,1008.36
2022-09-24T03:30:11.445Z,1008.36
2022-09-24T03:31:10.787Z,1008.37
2022-09-24T03:32:11.424Z,1008.39
2022-09-24T03:33:12.206Z,1008.39
2022-09-24T03:34:10.776Z,1008.37
2022-09-24T03:35:10.707Z,1008.40
2022-09-24T03:36:10.730Z,1008.36
2022-09-24T03:37:10.685Z,1008.38
2022-09-24T03:38:11.358Z,1008.35
2022-09-24T03:39:12.098Z,1008.34
2022-09-24T03:40:10.689Z,1008.34
2022-09-24T03:41:10.656Z,1008.33
2022-09-24T03:42:10.672Z,1008.31
2022-09-24T03:43:12.076Z,1008.27
2022-09-24T03:44:11.341Z,1008.27
2022-09-24T03:45:10.599Z,1008.27
2022-09-24T03:46:10.664Z,1008.32
2022-09-24T03:47:11.259Z,1008.27
2022-09-24T03:48:11.228Z,1008.28
2022-09-24T03:49:10.569Z,1008.25
2022-09-24T03:50:11.987Z,1008.29
2022-09-24T03:51:11.239Z,1008.24
2022-09-24T03:52:11.212Z,1008.25
2022-09-24T03:53:11.190Z,1008.23
2022-09-24T03:54:10.675Z,1008.22
2022-09-24T03:55:11.178Z,1008.20
2022-09-24T03:56:11.171Z,1008.22
2022-09-24T03:57:10.469Z,1008.17
2022-09-24T03:58:10.481Z,1008.18
2022-09-24T03:59:10.455Z,1008.21
2022-09-24T04:00:10.471Z,1008.20
2022-09-24T04:01:11.111Z,1008.19
2022-09-24T04:02:11.226Z,1008.20
2022-09-24T04:03:11.388Z,1008.16
2022-09-24T04:04:10.407Z,1008.17
2022-09-24T04:05:11.067Z,1008.16
2022-09-24T04:06:11.056Z,1008.15
2022-09-24T04:07:11.055Z,1008.20
2022-09-24T04:08:10.367Z,1008.16
2022-09-24T04:09:11.025Z,1008.12
2022-09-24T04:10:10.365Z,1008.14
2022-09-24T04:11:11.016Z,1008.16
2022-09-24T04:12:10.385Z,1008.19
2022-09-24T04:13:10.306Z,1008.17
2022-09-24T04:14:10.288Z,1008.13
2022-09-24T04:15:10.300Z,1008.13
2022-09-24T04:16:10.989Z,1008.12
2022-09-24T04:17:10.945Z,1008.10
2022-09-24T04:18:10.921Z,1008.14
2022-09-24T04:19:10.917Z,1008.12
2022-09-24T04:20:10.911Z,1008.08
2022-09-24T04:21:10.899Z,1008.09
2022-09-24T04:22:10.225Z,1008.07
2022-09-24T04:23:11.147Z,1008.11
2022-09-24T04:24:10.231Z,1008.06
2022-09-24T04:25:14.754Z,1008.09
2022-09-24T04:26:10.846Z,1008.05
2022-09-24T04:27:10.168Z,1008.04
2022-09-24T04:28:10.830Z,1008.08
2022-09-24T04:29:10.130Z,1008.10
2022-09-24T04:30:10.151Z,1008.07
2022-09-24T04:31:10.219Z,1008.04
2022-09-24T04:32:10.110Z,1008.06
2022-09-24T04:33:10.099Z,1008.09
2022-09-24T04:34:10.807Z,1008.08
2022-09-24T04:35:10.753Z,1008.09
2022-09-24T04:36:10.091Z,1008.06
2022-09-24T04:37:11.492Z,1008.06
2022-09-24T04:38:10.030Z,1008.06
2022-09-24T04:39:10.711Z,1008.07
2022-09-24T04:40:10.720Z,1008.04
2022-09-24T04:41:10.693Z,1008.07
2022-09-24T04:42:10.753Z,1008.07
2022-09-24T04:43:09.976Z,1008.04
2022-09-24T04:44:09.994Z,1008.05
2022-09-24T04:45:10.642Z,1008.05
2022-09-24T04:46:10.717Z,1008.07
2022-09-24T04:47:11.383Z,1008.07
2022-09-24T04:48:10.594Z,1008.07
2022-09-24T04:49:10.695Z,1008.08
2022-09-24T04:50:10.586Z,1008.08
2022-09-24T04:51:10.583Z,1008.05
2022-09-24T04:52:09.886Z,1008.03
2022-09-24T04:53:09.882Z,1008.05
2022-09-24T04:54:09.927Z,1008.08
2022-09-24T04:55:10.536Z,1008.07
2022-09-24T04:56:09.837Z,1007.99
2022-09-24T04:57:09.839Z,1008.04
2022-09-24T04:58:10.507Z,1008.06
2022-09-24T04:59:10.539Z,1008.05
2022-09-24T05:00:11.367Z,1008.05
2022-09-24T05:01:09.796Z,1008.06
2022-09-24T05:02:10.090Z,1008.06
2022-09-24T05:03:10.758Z,1008.06
2022-09-24T05:04:09.779Z,1008.07
2022-09-24T05:05:10.428Z,1008.07
2022-09-24T05:06:10.420Z,1008.11
2022-09-24T05:07:10.699Z,1008.07
2022-09-24T05:08:09.738Z,1008.10
2022-09-24T05:09:12.711Z,1008.11
2022-09-24T05:10:09.690Z,1008.14
2022-09-24T05:11:10.375Z,1008.11
2022-09-24T05:12:11.219Z,1008.13
2022-09-24T05:13:09.721Z,1008.15
2022-09-24T05:14:09.680Z,1008.18
2022-09-24T05:15:10.337Z,1008.14
2022-09-24T05:16:10.009Z,1008.18
2022-09-24T05:17:10.302Z,1008.17
2022-09-24T05:18:10.283Z,1008.13
2022-09-24T05:19:11.069Z,1008.18
2022-09-24T05:20:10.269Z,1008.15
2022-09-24T05:21:09.575Z,1008.21
2022-09-24T05:22:10.251Z,1008.18
2022-09-24T05:23:11.004Z,1008.18
2022-09-24T05:24:10.211Z,1008.18
2022-09-24T05:25:10.972Z,1008.18
2022-09-24T05:26:09.530Z,1008.14
2022-09-24T05:27:09.514Z,1008.18
2022-09-24T05:28:10.183Z,1008.18
2022-09-24T05:29:10.503Z,1008.20
2022-09-24T05:30:10.456Z,1008.16
2022-09-24T05:31:10.204Z,1008.20
2022-09-24T05:32:10.144Z,1008.20
2022-09-24T05:33:10.139Z,1008.22
2022-09-24T05:34:09.457Z,1008.22
2022-09-24T05:35:09.423Z,1008.19
2022-09-24T05:36:10.106Z,1008.23
2022-09-24T05:37:10.094Z,1008.27
2022-09-24T05:38:09.443Z,1008.27
2022-09-24T05:39:09.467Z,1008.30
2022-09-24T05:40:10.110Z,1008.19
2022-09-24T05:41:09.385Z,1008.16
2022-09-24T05:42:10.030Z,1008.16
2022-09-24T05:43:10.027Z,1008.19
2022-09-24T05:44:09.331Z,1008.24
2022-09-24T05:45:10.008Z,1008.24
2022-09-24T05:46:10.038Z,1008.31
2022-09-24T05:47:09.337Z,1008.21
2022-09-24T05:48:10.271Z,1008.24
2022-09-24T05:49:09.346Z,1008.26
2022-09-24T05:50:09.975Z,1008.21
2022-09-24T05:51:10.711Z,1008.25
2022-09-24T05:52:09.933Z,1008.19
2022-09-24T05:53:09.269Z,1008.21
2022-09-24T05:54:09.915Z,1008.19
2022-09-24T05:55:10.652Z,1008.20
2022-09-24T05:56:09.270Z,1008.21
2022-09-24T05:57:09.880Z,1008.21
2022-09-24T05:58:09.861Z,1008.22
2022-09-24T05:59:09.277Z,1008.23
2022-09-24T06:00:09.834Z,1008.26
2022-09-24T06:01:09.833Z,1008.24
2022-09-24T06:02:09.936Z,1008.27
2022-09-24T06:03:09.217Z,1008.32
2022-09-24T06:04:09.487Z,1008.26
2022-09-24T06:05:09.102Z,1008.25
2022-09-24T06:06:09.774Z,1008.27
2022-09-24T06:07:09.773Z,1008.31
2022-09-24T06:08:09.133Z,1008.27
2022-09-24T06:09:09.796Z,1008.28
2022-09-24T06:10:09.734Z,1008.30
2022-09-24T06:11:09.685Z,1008.25
2022-09-24T06:12:09.171Z,1008.29
2022-09-24T06:13:09.933Z,1008.31
2022-09-24T06:14:10.462Z,1008.30
2022-09-24T06:15:09.682Z,1008.32
2022-09-24T06:16:09.745Z,1008.32
2022-09-24T06:17:09.666Z,1008.30
2022-09-24T06:18:09.718Z,1008.33
2022-09-24T06:19:09.733Z,1008.34
2022-09-24T06:20:10.410Z,1008.34
2022-09-24T06:21:08.956Z,1008.34
2022-09-24T06:22:08.917Z,1008.36
2022-09-24T06:23:08.906Z,1008.38
2022-09-24T06:24:08.947Z,1008.38
2022-09-24T06:25:08.891Z,1008.43
2022-09-24T06:26:09.557Z,1008.38
2022-09-24T06:27:09.539Z,1008.38
2022-09-24T06:28:09.528Z,1008.35
2022-09-24T06:29:09.571Z,1008.41
2022-09-24T06:30:08.885Z,1008.40
2022-09-24T06:31:09.539Z,1008.42
2022-09-24T06:32:09.499Z,1008.42
2022-09-24T06:33:08.798Z,1008.45
2022-09-24T06:34:09.470Z,1008.47
2022-09-24T06:35:09.522Z,1008.40
2022-09-24T06:36:08.840Z,1008.42
2022-09-24T06:37:09.433Z,1008.43
2022-09-24T06:38:09.433Z,1008.43
2022-09-24T06:39:08.799Z,1008.42
2022-09-24T06:40:09.511Z,1008.44
2022-09-24T06:41:10.196Z,1008.45
2022-09-24T06:42:09.372Z,1008.44
2022-09-24T06:43:09.371Z,1008.45
2022-09-24T06:44:09.364Z,1008.43
2022-09-24T06:45:08.685Z,1008.49
2022-09-24T06:46:09.382Z,1008.45
2022-09-24T06:47:09.341Z,1008.42
2022-09-24T06:48:09.314Z,1008.45
2022-09-24T06:49:09.349Z,1008.46
2022-09-24T06:50:08.613Z,1008.41
2022-09-24T06:51:08.626Z,1008.45
2022-09-24T06:52:09.535Z,1008.52
2022-09-24T06:53:09.256Z,1008.45
2022-09-24T06:54:08.596Z,1008.49
2022-09-24T06:55:09.234Z,1008.48
2022-09-24T06:56:08.535Z,1008.50
2022-09-24T06:57:09.222Z,1008.50
2022-09-24T06:58:09.238Z,1008.52
2022-09-24T06:59:08.538Z,1008.53
2022-09-24T07:00:09.182Z,1008.52
2022-09-24T07:01:09.267Z,1008.51
2022-09-24T07:02:09.205Z,1008.50
2022-09-24T07:03:09.918Z,1008.56
2022-09-24T07:04:09.146Z,1008.58
2022-09-24T07:05:09.141Z,1008.56
2022-09-24T07:06:09.115Z,1008.55
2022-09-24T07:07:08.483Z,1008.58
2022-09-24T07:08:08.438Z,1008.58
2022-09-24T07:09:09.149Z,1008.59
2022-09-24T07:10:09.070Z,1008.58
2022-09-24T07:11:09.066Z,1008.62
2022-09-24T07:12:09.913Z,1008.61
2022-09-24T07:13:08.361Z,1008.56
2022-09-24T07:14:09.810Z,1008.55
2022-09-24T07:15:09.284Z,1008.53
2022-09-24T07:16:09.822Z,1008.54
2022-09-24T07:17:09.761Z,1008.51
2022-09-24T07:18:09.804Z,1008.55
2022-09-24T07:19:09.861Z,1008.54
2022-09-24T07:20:09.732Z,1008.55
2022-09-24T07:21:08.292Z,1008.55
2022-09-24T07:22:09.723Z,1008.57
2022-09-24T07:23:08.269Z,1008.57
2022-09-24T07:24:09.711Z,1008.57
2022-09-24T07:25:08.921Z,1008.55
2022-09-24T07:26:08.256Z,1008.58
2022-09-24T07:27:08.264Z,1008.58
2022-09-24T07:28:08.883Z,1008.59
2022-09-24T07:29:08.937Z,1008.60
2022-09-24T07:30:09.668Z,1008.59
2022-09-24T07:31:08.878Z,1008.62
2022-09-24T07:32:08.440Z,1008.62
2022-09-24T07:33:08.144Z,1008.54
2022-09-24T07:34:08.263Z,1008.56
2022-09-24T07:35:08.128Z,1008.55
2022-09-24T07:36:08.857Z,1008.61
2022-09-24T07:37:08.125Z,1008.58
2022-09-24T07:38:08.802Z,1008.59
2022-09-24T07:39:08.755Z,1008.62
2022-09-24T07:40:08.109Z,1008.65
2022-09-24T07:41:08.138Z,1008.64
2022-09-24T07:42:08.728Z,1008.62
2022-09-24T07:43:08.727Z,1008.65
2022-09-24T07:44:08.122Z,1008.60
2022-09-24T07:45:08.698Z,1008.60
2022-09-24T07:46:08.128Z,1008.65
2022-09-24T07:47:11.013Z,1008.63
2022-09-24T07:48:10.457Z,1008.66
2022-09-24T07:49:08.697Z,1008.64
2022-09-24T07:50:07.990Z,1008.66
2022-09-24T07:51:08.639Z,1008.68
2022-09-24T07:52:08.619Z,1008.69
2022-09-24T07:53:07.937Z,1008.67
2022-09-24T07:54:08.088Z,1008.71
2022-09-24T07:55:08.611Z,1008.70
2022-09-24T07:56:09.322Z,1008.70
2022-09-24T07:57:08.569Z,1008.69
2022-09-24T07:58:08.572Z,1008.72
2022-09-24T07:59:07.862Z,1008.71
2022-09-24T08:00:07.889Z,1008.75
2022-09-24T08:01:08.528Z,1008.78
2022-09-24T08:02:08.541Z,1008.72
2022-09-24T08:03:07.811Z,1008.77
2022-09-24T08:04:08.692Z,1008.74
2022-09-24T08:05:08.484Z,1008.78
2022-09-24T08:06:07.826Z,1008.79
2022-09-24T08:07:07.837Z,1008.80
2022-09-24T08:08:08.445Z,1008.80
2022-09-24T08:09:08.437Z,1008.81
2022-09-24T08:10:07.777Z,1008.82
2022-09-24T08:11:08.418Z,1008.81
2022-09-24T08:12:08.397Z,1008.82
2022-09-24T08:13:09.150Z,1008.82
2022-09-24T08:14:07.703Z,1008.82
2022-09-24T08:15:08.374Z,1008.81
2022-09-24T08:16:07.765Z,1008.81
2022-09-24T08:17:07.669Z,1008.83
2022-09-24T08:18:07.682Z,1008.81
2022-09-24T08:19:08.587Z,1008.87
2022-09-24T08:20:07.661Z,1008.87
2022-09-24T08:21:08.322Z,1008.87
2022-09-24T08:22:07.813Z,1008.88
2022-09-24T08:23:08.289Z,1008.89
2022-09-24T08:24:07.803Z,1008.90
2022-09-24T08:25:08.259Z,1008.88
2022-09-24T08:26:08.259Z,1008.86
2022-09-24T08:27:07.691Z,1008.86
2022-09-24T08:28:07.577Z,1008.85
2022-09-24T08:29:08.230Z,1008.91
2022-09-24T08:30:07.560Z,1008.90
2022-09-24T08:31:08.251Z,1008.87
2022-09-24T08:32:07.506Z,1008.90
2022-09-24T08:33:07.511Z,1008.84
2022-09-24T08:34:07.568Z,1008.85
2022-09-24T08:35:08.155Z,1008.88
2022-09-24T08:36:07.668Z,1008.90
2022-09-24T08:37:08.162Z,1008.91
2022-09-24T08:38:08.431Z,1008.95
2022-09-24T08:39:07.462Z,1008.95
2022-09-24T08:40:07.458Z,1008.93
2022-09-24T08:41:07.453Z,1008.94
2022-09-24T08:42:07.416Z,1008.95
2022-09-24T08:43:08.336Z,1008.96
2022-09-24T08:44:08.124Z,1008.97
2022-09-24T08:45:07.369Z,1008.89
2022-09-24T08:46:07.431Z,1008.92
2022-09-24T08:47:08.025Z,1008.97
2022-09-24T08:48:09.304Z,1008.94
2022-09-24T08:49:07.999Z,1008.95
2022-09-24T08:50:08.765Z,1008.98
2022-09-24T08:51:09.296Z,1009.00
2022-09-24T08:52:07.965Z,1009.01
2022-09-24T08:53:07.303Z,1009.03
2022-09-24T08:54:07.988Z,1009.03
2022-09-24T08:55:08.738Z,1009.02
2022-09-24T08:56:07.927Z,1009.02
2022-09-24T08:57:08.317Z,1009.03
2022-09-24T08:58:07.896Z,1009.03
2022-09-24T08:59:07.887Z,1009.05
2022-09-24T09:00:07.938Z,1009.01
2022-09-24T09:01:07.312Z,1009.02
2022-09-24T09:02:08.777Z,1009.06
2022-09-24T09:03:09.147Z,1009.05
2022-09-24T09:04:07.204Z,1009.04
2022-09-24T09:05:08.580Z,1009.07
2022-09-24T09:06:08.621Z,1009.06
2022-09-24T09:07:08.090Z,1009.06
2022-09-24T09:08:27.236Z,1009.00
2022-09-24T09:09:08.194Z,1009.07
2022-09-24T09:10:07.152Z,1009.03
2022-09-24T09:11:07.769Z,1009.05
2022-09-24T09:12:07.753Z,1009.10
2022-09-24T09:13:07.091Z,1009.06
2022-09-24T09:14:07.731Z,1009.07
2022-09-24T09:15:07.723Z,1009.07
2022-09-24T09:16:07.746Z,1009.05
2022-09-24T09:17:07.103Z,1009.07
2022-09-24T09:18:07.956Z,1009.06
2022-09-24T09:19:06.993Z,1009.09
2022-09-24T09:20:07.023Z,1009.11
2022-09-24T09:21:07.654Z,1009.13
2022-09-24T09:22:07.645Z,1009.16
2022-09-24T09:23:07.645Z,1009.15
2022-09-24T09:24:08.934Z,1009.11
2022-09-24T09:25:08.452Z,1009.15
2022-09-24T09:26:07.605Z,1009.11
2022-09-24T09:27:06.910Z,1009.14
2022-09-24T09:28:07.585Z,1009.17
2022-09-24T09:29:07.602Z,1009.16
2022-09-24T09:30:11.784Z,1009.14
2022-09-24T09:31:07.975Z,1009.17
2022-09-24T09:32:07.832Z,1009.16
2022-09-24T09:33:06.886Z,1009.15
2022-09-24T09:34:08.327Z,1009.18
2022-09-24T09:35:08.257Z,1009.17
2022-09-24T09:36:07.580Z,1009.19
2022-09-24T09:37:07.479Z,1009.18
2022-09-24T09:38:07.479Z,1009.19
2022-09-24T09:39:07.491Z,1009.22
2022-09-24T09:40:06.828Z,1009.21
2022-09-24T09:41:08.738Z,1009.23
2022-09-24T09:42:07.430Z,1009.21
2022-09-24T09:43:07.414Z,1009.22
2022-09-24T09:44:06.743Z,1009.21
2022-09-24T09:45:07.391Z,1009.21
2022-09-24T09:46:07.459Z,1009.21
2022-09-24T09:47:06.766Z,1009.19
2022-09-24T09:48:07.362Z,1009.18
2022-09-24T09:49:07.356Z,1009.21
2022-09-24T09:50:08.110Z,1009.22
2022-09-24T09:51:07.332Z,1009.23
2022-09-24T09:52:07.322Z,1009.20
2022-09-24T09:53:07.321Z,1009.22
2022-09-24T09:54:07.567Z,1009.23
2022-09-24T09:55:06.603Z,1009.22
2022-09-24T09:56:07.275Z,1009.21
2022-09-24T09:57:07.255Z,1009.21
2022-09-24T09:58:07.275Z,1009.24
2022-09-24T09:59:07.281Z,1009.21
2022-09-24T10:00:06.588Z,1009.21
2022-09-24T10:01:07.217Z,1009.21
2022-09-24T10:02:07.253Z,1009.24
2022-09-24T10:03:06.661Z,1009.22
2022-09-24T10:04:07.186Z,1009.24
2022-09-24T10:05:06.506Z,1009.21
2022-09-24T10:06:06.523Z,1009.23
2022-09-24T10:07:06.543Z,1009.27
2022-09-24T10:08:08.399Z,1009.30
2022-09-24T10:09:08.410Z,1009.26
2022-09-24T10:10:07.123Z,1009.24
2022-09-24T10:11:07.108Z,1009.25
2022-09-24T10:12:07.277Z,1009.28
2022-09-24T10:13:07.090Z,1009.31
2022-09-24T10:14:07.401Z,1009.28
2022-09-24T10:15:06.449Z,1009.25
2022-09-24T10:16:07.592Z,1009.25
2022-09-24T10:17:06.392Z,1009.25
2022-09-24T10:18:06.391Z,1009.23
2022-09-24T10:19:07.025Z,1009.23
2022-09-24T10:20:07.024Z,1009.22
2022-09-24T10:21:06.331Z,1009.23
2022-09-24T10:22:06.312Z,1009.22
2022-09-24T10:23:08.259Z,1009.27
2022-09-24T10:24:06.952Z,1009.25
2022-09-24T10:25:06.952Z,1009.27
2022-09-24T10:26:06.950Z,1009.23
2022-09-24T10:27:06.944Z,1009.21
2022-09-24T10:28:06.247Z,1009.23
2022-09-24T10:29:06.274Z,1009.15
2022-09-24T10:30:06.669Z,1009.18
2022-09-24T10:31:06.261Z,1009.13
2022-09-24T10:32:06.888Z,1009.14
2022-09-24T10:33:06.235Z,1009.14
2022-09-24T10:34:06.865Z,1009.12
2022-09-24T10:35:06.292Z,1009.17
2022-09-24T10:36:06.855Z,1009.10
2022-09-24T10:37:10.933Z,1009.17
2022-09-24T10:38:06.186Z,1009.12
2022-09-24T10:39:06.177Z,1009.13
2022-09-24T10:40:06.277Z,1009.12
2022-09-24T10:41:06.127Z,1009.17
2022-09-24T10:42:06.767Z,1009.12
2022-09-24T10:43:06.107Z,1009.14
2022-09-24T10:44:06.120Z,1009.11
2022-09-24T10:45:06.078Z,1009.10
2022-09-24T10:46:06.108Z,1009.14
2022-09-24T10:47:06.120Z,1009.13
2022-09-24T10:48:06.800Z,1009.13
2022-09-24T10:49:06.705Z,1009.19
2022-09-24T10:50:06.020Z,1009.15
2022-09-24T10:51:06.679Z,1009.12
2022-09-24T10:52:06.670Z,1009.15
2022-09-24T10:53:06.667Z,1009.12
2022-09-24T10:54:06.119Z,1009.13
2022-09-24T10:55:06.011Z,1009.12
2022-09-24T10:56:06.000Z,1009.14
2022-09-24T10:57:06.640Z,1009.14
2022-09-24T10:58:06.884Z,1009.13
2022-09-24T10:59:05.944Z,1009.14
2022-09-24T11:00:05.928Z,1009.14
2022-09-24T11:01:06.885Z,1009.12
2022-09-24T11:02:07.862Z,1009.12
2022-09-24T11:03:05.992Z,1009.11
2022-09-24T11:04:05.955Z,1009.10
2022-09-24T11:05:06.543Z,1009.17
2022-09-24T11:06:05.849Z,1009.12
2022-09-24T11:07:06.517Z,1009.10
2022-09-24T11:08:05.825Z,1009.08
2022-09-24T11:09:05.820Z,1009.12
2022-09-24T11:10:06.715Z,1009.08
2022-09-24T11:11:07.726Z,1009.09
2022-09-24T11:12:06.456Z,1009.08
2022-09-24T11:13:05.791Z,1009.13
2022-09-24T11:14:06.466Z,1009.09
2022-09-24T11:15:06.419Z,1009.08
2022-09-24T11:16:05.785Z,1009.10
2022-09-24T11:17:07.167Z,1009.07
2022-09-24T11:18:06.413Z,1009.07
2022-09-24T11:19:06.388Z,1009.07
2022-09-24T11:20:06.369Z,1009.11
2022-09-24T11:21:06.358Z,1009.08
2022-09-24T11:22:06.642Z,1009.08
2022-09-24T11:23:05.749Z,1009.09
2022-09-24T11:24:06.343Z,1009.09
2022-09-24T11:25:05.921Z,1009.12
2022-09-24T11:26:05.641Z,1009.11
2022-09-24T11:27:06.293Z,1009.15
2022-09-24T11:28:06.272Z,1009.15
2022-09-24T11:29:06.445Z,1009.19
2022-09-24T11:30:06.248Z,1009.18
2022-09-24T11:31:06.607Z,1009.16
2022-09-24T11:32:06.539Z,1009.18
2022-09-24T11:33:06.553Z,1009.13
2022-09-24T11:34:06.507Z,1009.18
2022-09-24T11:35:06.206Z,1009.19
2022-09-24T11:36:06.224Z,1009.17
2022-09-24T11:37:06.183Z,1009.17
2022-09-24T11:38:06.484Z,1009.16
2022-09-24T11:39:05.477Z,1009.17
2022-09-24T11:40:06.957Z,1009.15
2022-09-24T11:41:06.241Z,1009.17
2022-09-24T11:42:05.640Z,1009.17
2022-09-24T11:43:05.498Z,1009.18
2022-09-24T11:44:07.051Z,1009.15
2022-09-24T11:45:05.518Z,1009.17
2022-09-24T11:46:05.465Z,1009.17
2022-09-24T11:47:08.626Z,1009.15
2022-09-24T11:48:07.400Z,1009.12
2022-09-24T11:49:05.414Z,1009.12
2022-09-24T11:50:05.418Z,1009.16
2022-09-24T11:51:05.471Z,1009.15
2022-09-24T11:52:06.069Z,1009.13
2022-09-24T11:53:06.399Z,1009.14
2022-09-24T11:54:06.340Z,1009.13
2022-09-24T11:55:06.304Z,1009.13
2022-09-24T11:56:10.835Z,1009.14
2022-09-24T11:57:07.260Z,1009.12
2022-09-24T11:58:06.230Z,1009.14
2022-09-24T11:59:05.953Z,1009.14
2022-09-24T12:00:05.913Z,1009.14
2022-09-24T12:01:05.922Z,1009.15
2022-09-24T12:02:05.948Z,1009.09
2022-09-24T12:03:05.284Z,1009.12
2022-09-24T12:04:05.939Z,1009.09
2022-09-24T12:05:05.882Z,1009.11